sensor_id;sensor_type;location;lat;lon;timestamp;P1;durP1;ratioP1;P2;durP2;ratioP2
70459;SDS011;57920;54.796;9.430;2022-10-17T00:01:38;3.50;;;1.97;;
70459;SDS011;57920;54.796;9.430;2022-10-17T00:04:04;4.70;;;2.23;;
70459;SDS011;57920;54.796;9.430;2022-10-17T00:06:29;3.90;;;1.77;;
70459;SDS011;57920;54.796;9.430;2022-10-17T00:08:55;3.00;;;1.87;;
70459;SDS011;57920;54.796;9.430;2022-10-17T00:11:21;3.53;;;1.80;;
70459;SDS011;57920;54.796;9.430;2022-10-17T00:13:48;3.33;;;1.90;;
70459;SDS011;57920;54.796;9.430;2022-10-17T00:16:22;3.70;;;1.80;;
70459;SDS011;57920;54.796;9.430;2022-10-17T00:18:52;3.00;;;1.37;;
70459;SDS011;57920;54.796;9.430;2022-10-17T00:21:18;6.47;;;2.20;;
70459;SDS011;57920;54.796;9.430;2022-10-17T00:23:44;3.97;;;1.77;;
70459;SDS011;57920;54.796;9.430;2022-10-17T00:26:11;3.37;;;1.60;;
70459;SDS011;57920;54.796;9.430;2022-10-17T00:28:37;3.83;;;1.60;;
70459;SDS011;57920;54.796;9.430;2022-10-17T00:31:03;4.33;;;2.03;;
70459;SDS011;57920;54.796;9.430;2022-10-17T00:33:31;4.17;;;1.90;;
70459;SDS011;57920;54.796;9.430;2022-10-17T00:38:35;6.23;;;2.23;;
70459;SDS011;57920;54.796;9.430;2022-10-17T00:41:01;2.93;;;1.70;;
70459;SDS011;57920;54.796;9.430;2022-10-17T00:43:27;3.17;;;1.80;;
70459;SDS011;57920;54.796;9.430;2022-10-17T00:45:53;3.17;;;1.73;;
70459;SDS011;57920;54.796;9.430;2022-10-17T00:48:19;4.40;;;2.10;;
70459;SDS011;57920;54.796;9.430;2022-10-17T00:50:48;4.00;;;2.20;;
70459;SDS011;57920;54.796;9.430;2022-10-17T00:53:14;3.53;;;1.63;;
70459;SDS011;57920;54.796;9.430;2022-10-17T00:55:41;3.17;;;2.10;;
70459;SDS011;57920;54.796;9.430;2022-10-17T00:58:12;4.47;;;1.80;;
70459;SDS011;57920;54.796;9.430;2022-10-17T01:00:38;4.37;;;1.83;;
70459;SDS011;57920;54.796;9.430;2022-10-17T01:03:05;2.50;;;1.50;;
70459;SDS011;57920;54.796;9.430;2022-10-17T01:05:31;4.27;;;1.63;;
70459;SDS011;57920;54.796;9.430;2022-10-17T01:07:56;3.37;;;1.90;;
70459;SDS011;57920;54.796;9.430;2022-10-17T01:10:25;4.23;;;1.90;;
70459;SDS011;57920;54.796;9.430;2022-10-17T01:13:15;2.87;;;1.70;;
70459;SDS011;57920;54.796;9.430;2022-10-17T01:15:58;4.20;;;1.83;;
70459;SDS011;57920;54.796;9.430;2022-10-17T01:29:36;2.60;;;1.40;;
70459;SDS011;57920;54.796;9.430;2022-10-17T01:35:15;2.63;;;1.47;;
70459;SDS011;57920;54.796;9.430;2022-10-17T01:40:36;3.60;;;1.40;;
70459;SDS011;57920;54.796;9.430;2022-10-17T01:43:23;2.87;;;1.27;;
70459;SDS011;57920;54.796;9.430;2022-10-17T01:46:00;3.13;;;2.00;;
70459;SDS011;57920;54.796;9.430;2022-10-17T01:51:48;2.60;;;1.20;;
70459;SDS011;57920;54.796;9.430;2022-10-17T01:54:20;2.90;;;1.30;;
70459;SDS011;57920;54.796;9.430;2022-10-17T01:56:47;4.20;;;1.70;;
70459;SDS011;57920;54.796;9.430;2022-10-17T01:59:19;3.40;;;1.97;;
70459;SDS011;57920;54.796;9.430;2022-10-17T02:01:51;4.37;;;1.97;;
70459;SDS011;57920;54.796;9.430;2022-10-17T02:04:19;5.10;;;1.83;;
70459;SDS011;57920;54.796;9.430;2022-10-17T02:06:45;1.67;;;1.30;;
70459;SDS011;57920;54.796;9.430;2022-10-17T02:09:21;1.53;;;1.20;;
70459;SDS011;57920;54.796;9.430;2022-10-17T02:11:57;2.83;;;1.60;;
70459;SDS011;57920;54.796;9.430;2022-10-17T02:17:42;4.37;;;1.30;;
70459;SDS011;57920;54.796;9.430;2022-10-17T02:25:31;3.43;;;1.83;;
70459;SDS011;57920;54.796;9.430;2022-10-17T02:33:30;2.60;;;1.33;;
70459;SDS011;57920;54.796;9.430;2022-10-17T02:36:08;3.83;;;1.77;;
70459;SDS011;57920;54.796;9.430;2022-10-17T02:38:38;3.63;;;1.90;;
70459;SDS011;57920;54.796;9.430;2022-10-17T02:41:06;5.70;;;2.13;;
70459;SDS011;57920;54.796;9.430;2022-10-17T02:43:34;3.33;;;1.60;;
70459;SDS011;57920;54.796;9.430;2022-10-17T02:46:01;1.77;;;1.23;;
70459;SDS011;57920;54.796;9.430;2022-10-17T05:27:43;2.60;;;1.43;;
70459;SDS011;57920;54.796;9.430;2022-10-17T05:30:10;3.07;;;1.53;;
70459;SDS011;57920;54.796;9.430;2022-10-17T05:32:36;3.43;;;2.03;;
70459;SDS011;57920;54.796;9.430;2022-10-17T05:35:02;3.40;;;1.80;;
70459;SDS011;57920;54.796;9.430;2022-10-17T05:37:28;4.07;;;1.80;;
70459;SDS011;57920;54.796;9.430;2022-10-17T05:39:55;4.40;;;2.17;;
70459;SDS011;57920;54.796;9.430;2022-10-17T05:42:20;4.37;;;1.60;;
70459;SDS011;57920;54.796;9.430;2022-10-17T05:44:46;4.00;;;1.73;;
70459;SDS011;57920;54.796;9.430;2022-10-17T05:47:12;2.23;;;1.40;;
70459;SDS011;57920;54.796;9.430;2022-10-17T05:49:37;3.90;;;1.50;;
70459;SDS011;57920;54.796;9.430;2022-10-17T05:52:03;2.63;;;1.73;;
70459;SDS011;57920;54.796;9.430;2022-10-17T05:54:28;2.27;;;1.23;;
70459;SDS011;57920;54.796;9.430;2022-10-17T05:56:54;2.30;;;1.27;;
70459;SDS011;57920;54.796;9.430;2022-10-17T05:59:20;3.13;;;1.90;;
70459;SDS011;57920;54.796;9.430;2022-10-17T06:01:48;4.80;;;1.60;;
70459;SDS011;57920;54.796;9.430;2022-10-17T06:04:13;4.10;;;1.90;;
70459;SDS011;57920;54.796;9.430;2022-10-17T06:06:39;3.70;;;1.70;;
70459;SDS011;57920;54.796;9.430;2022-10-17T06:09:05;5.47;;;2.10;;
70459;SDS011;57920;54.796;9.430;2022-10-17T06:11:32;3.37;;;1.97;;
70459;SDS011;57920;54.796;9.430;2022-10-17T06:13:58;3.30;;;1.57;;
70459;SDS011;57920;54.796;9.430;2022-10-17T06:16:24;4.63;;;1.73;;
70459;SDS011;57920;54.796;9.430;2022-10-17T06:18:50;2.27;;;1.70;;
70459;SDS011;57920;54.796;9.430;2022-10-17T06:21:23;1.90;;;1.37;;
70459;SDS011;57920;54.796;9.430;2022-10-17T06:23:50;3.03;;;1.40;;
70459;SDS011;57920;54.796;9.430;2022-10-17T06:26:16;3.47;;;1.70;;
70459;SDS011;57920;54.796;9.430;2022-10-17T06:28:42;4.67;;;1.60;;
70459;SDS011;57920;54.796;9.430;2022-10-17T06:31:09;3.37;;;2.00;;
70459;SDS011;57920;54.796;9.430;2022-10-17T06:33:36;4.77;;;2.33;;
70459;SDS011;57920;54.796;9.430;2022-10-17T06:36:03;6.63;;;2.03;;
70459;SDS011;57920;54.796;9.430;2022-10-17T06:38:30;4.90;;;2.47;;
70459;SDS011;57920;54.796;9.430;2022-10-17T06:43:50;4.90;;;2.47;;
70459;SDS011;57920;54.796;9.430;2022-10-17T06:46:16;9.37;;;2.93;;
70459;SDS011;57920;54.796;9.430;2022-10-17T06:52:05;6.33;;;2.73;;
70459;SDS011;57920;54.796;9.430;2022-10-17T06:54:30;4.97;;;2.63;;
70459;SDS011;57920;54.796;9.430;2022-10-17T06:56:56;5.07;;;3.27;;
70459;SDS011;57920;54.796;9.430;2022-10-17T06:59:22;6.70;;;3.20;;
70459;SDS011;57920;54.796;9.430;2022-10-17T07:01:47;10.13;;;3.20;;
70459;SDS011;57920;54.796;9.430;2022-10-17T07:04:13;7.63;;;3.20;;
70459;SDS011;57920;54.796;9.430;2022-10-17T07:06:38;6.40;;;2.83;;
70459;SDS011;57920;54.796;9.430;2022-10-17T07:09:04;8.13;;;3.00;;
70459;SDS011;57920;54.796;9.430;2022-10-17T07:11:31;3.30;;;2.70;;
70459;SDS011;57920;54.796;9.430;2022-10-17T07:13:58;4.80;;;3.03;;
70459;SDS011;57920;54.796;9.430;2022-10-17T07:16:23;6.50;;;3.10;;
70459;SDS011;57920;54.796;9.430;2022-10-17T07:22:11;4.10;;;2.10;;
70459;SDS011;57920;54.796;9.430;2022-10-17T07:24:37;7.43;;;2.97;;
70459;SDS011;57920;54.796;9.430;2022-10-17T07:27:03;5.87;;;3.63;;
70459;SDS011;57920;54.796;9.430;2022-10-17T07:29:28;59.13;;;24.87;;
70459;SDS011;57920;54.796;9.430;2022-10-17T07:31:54;65.63;;;29.47;;
70459;SDS011;57920;54.796;9.430;2022-10-17T07:34:19;75.57;;;30.83;;
70459;SDS011;57920;54.796;9.430;2022-10-17T07:36:45;66.00;;;28.50;;
70459;SDS011;57920;54.796;9.430;2022-10-17T07:39:10;54.37;;;22.23;;
70459;SDS011;57920;54.796;9.430;2022-10-17T07:41:36;55.37;;;24.57;;
70459;SDS011;57920;54.796;9.430;2022-10-17T07:44:02;56.53;;;25.27;;
70459;SDS011;57920;54.796;9.430;2022-10-17T07:46:28;47.40;;;22.33;;
70459;SDS011;57920;54.796;9.430;2022-10-17T07:48:53;67.83;;;30.00;;
70459;SDS011;57920;54.796;9.430;2022-10-17T07:51:19;45.87;;;21.03;;
70459;SDS011;57920;54.796;9.430;2022-10-17T07:53:45;57.20;;;25.37;;
70459;SDS011;57920;54.796;9.430;2022-10-17T07:56:12;53.17;;;25.53;;
70459;SDS011;57920;54.796;9.430;2022-10-17T07:58:37;60.37;;;25.90;;
70459;SDS011;57920;54.796;9.430;2022-10-17T08:01:04;54.53;;;21.27;;
70459;SDS011;57920;54.796;9.430;2022-10-17T08:03:32;44.27;;;25.20;;
70459;SDS011;57920;54.796;9.430;2022-10-17T08:05:59;43.63;;;19.67;;
70459;SDS011;57920;54.796;9.430;2022-10-17T08:08:25;53.13;;;22.13;;
70459;SDS011;57920;54.796;9.430;2022-10-17T08:10:52;42.53;;;23.83;;
70459;SDS011;57920;54.796;9.430;2022-10-17T08:13:19;48.40;;;22.90;;
70459;SDS011;57920;54.796;9.430;2022-10-17T08:15:45;40.20;;;21.67;;
70459;SDS011;57920;54.796;9.430;2022-10-17T08:18:12;43.67;;;21.83;;
70459;SDS011;57920;54.796;9.430;2022-10-17T08:20:42;42.87;;;20.53;;
70459;SDS011;57920;54.796;9.430;2022-10-17T08:23:08;34.63;;;17.83;;
70459;SDS011;57920;54.796;9.430;2022-10-17T08:25:36;33.10;;;18.90;;
70459;SDS011;57920;54.796;9.430;2022-10-17T08:28:03;37.47;;;21.07;;
70459;SDS011;57920;54.796;9.430;2022-10-17T08:30:30;38.80;;;19.23;;
70459;SDS011;57920;54.796;9.430;2022-10-17T08:32:55;38.87;;;17.03;;
70459;SDS011;57920;54.796;9.430;2022-10-17T08:35:21;43.53;;;20.73;;
70459;SDS011;57920;54.796;9.430;2022-10-17T08:37:47;41.33;;;20.70;;
70459;SDS011;57920;54.796;9.430;2022-10-17T08:40:15;38.47;;;20.73;;
70459;SDS011;57920;54.796;9.430;2022-10-17T08:45:40;35.87;;;17.20;;
70459;SDS011;57920;54.796;9.430;2022-10-17T08:48:17;34.90;;;18.87;;
70459;SDS011;57920;54.796;9.430;2022-10-17T08:54:14;21.97;;;13.23;;
70459;SDS011;57920;54.796;9.430;2022-10-17T08:56:51;37.57;;;18.03;;
70459;SDS011;57920;54.796;9.430;2022-10-17T08:59:20;34.57;;;16.30;;
70459;SDS011;57920;54.796;9.430;2022-10-17T09:02:00;27.23;;;15.30;;
70459;SDS011;57920;54.796;9.430;2022-10-17T09:04:54;20.87;;;12.33;;
70459;SDS011;57920;54.796;9.430;2022-10-17T09:10:26;27.20;;;12.80;;
70459;SDS011;57920;54.796;9.430;2022-10-17T09:21:35;21.07;;;11.83;;
70459;SDS011;57920;54.796;9.430;2022-10-17T09:24:12;15.60;;;11.03;;
70459;SDS011;57920;54.796;9.430;2022-10-17T09:26:43;19.20;;;11.03;;
70459;SDS011;57920;54.796;9.430;2022-10-17T09:29:20;69.73;;;30.40;;
70459;SDS011;57920;54.796;9.430;2022-10-17T09:31:50;116.30;;;41.90;;
70459;SDS011;57920;54.796;9.430;2022-10-17T09:34:27;84.33;;;32.83;;
70459;SDS011;57920;54.796;9.430;2022-10-17T09:36:54;90.40;;;37.97;;
70459;SDS011;57920;54.796;9.430;2022-10-17T09:39:23;77.77;;;50.97;;
70459;SDS011;57920;54.796;9.430;2022-10-17T09:41:54;92.10;;;36.70;;
70459;SDS011;57920;54.796;9.430;2022-10-17T09:47:00;76.07;;;35.23;;
70459;SDS011;57920;54.796;9.430;2022-10-17T09:53:15;55.53;;;26.50;;
70459;SDS011;57920;54.796;9.430;2022-10-17T09:55:50;56.50;;;26.67;;
70459;SDS011;57920;54.796;9.430;2022-10-17T09:58:20;59.13;;;28.20;;
70459;SDS011;57920;54.796;9.430;2022-10-17T10:00:46;53.40;;;28.43;;
70459;SDS011;57920;54.796;9.430;2022-10-17T10:06:05;52.20;;;27.33;;
70459;SDS011;57920;54.796;9.430;2022-10-17T10:11:42;51.10;;;28.53;;
70459;SDS011;57920;54.796;9.430;2022-10-17T10:16:46;44.67;;;24.07;;
70459;SDS011;57920;54.796;9.430;2022-10-17T10:22:35;41.97;;;21.80;;
70459;SDS011;57920;54.796;9.430;2022-10-17T10:27:40;46.97;;;24.03;;
70459;SDS011;57920;54.796;9.430;2022-10-17T10:30:18;39.60;;;19.87;;
70459;SDS011;57920;54.796;9.430;2022-10-17T10:32:48;98.80;;;30.03;;
70459;SDS011;57920;54.796;9.430;2022-10-17T10:37:44;60.03;;;22.13;;
70459;SDS011;57920;54.796;9.430;2022-10-17T10:40:19;49.23;;;17.83;;
70459;SDS011;57920;54.796;9.430;2022-10-17T10:42:45;54.73;;;19.13;;
70459;SDS011;57920;54.796;9.430;2022-10-17T10:45:18;53.93;;;20.87;;
70459;SDS011;57920;54.796;9.430;2022-10-17T10:48:05;41.27;;;15.50;;
70459;SDS011;57920;54.796;9.430;2022-10-17T10:56:33;39.90;;;18.97;;
70459;SDS011;57920;54.796;9.430;2022-10-17T10:59:14;47.17;;;17.90;;
70459;SDS011;57920;54.796;9.430;2022-10-17T11:01:47;42.10;;;17.33;;
70459;SDS011;57920;54.796;9.430;2022-10-17T11:07:07;35.33;;;17.63;;
70459;SDS011;57920;54.796;9.430;2022-10-17T11:12:22;40.87;;;16.40;;
70459;SDS011;57920;54.796;9.430;2022-10-17T11:17:26;35.57;;;15.00;;
70459;SDS011;57920;54.796;9.430;2022-10-17T11:23:35;23.70;;;12.40;;
70459;SDS011;57920;54.796;9.430;2022-10-17T11:26:03;29.03;;;15.10;;
70459;SDS011;57920;54.796;9.430;2022-10-17T11:28:36;31.27;;;15.33;;
70459;SDS011;57920;54.796;9.430;2022-10-17T11:31:04;25.77;;;14.50;;
70459;SDS011;57920;54.796;9.430;2022-10-17T11:33:36;26.27;;;14.27;;
70459;SDS011;57920;54.796;9.430;2022-10-17T11:36:10;27.47;;;13.77;;
70459;SDS011;57920;54.796;9.430;2022-10-17T11:41:06;37.50;;;15.83;;
70459;SDS011;57920;54.796;9.430;2022-10-17T11:43:39;45.50;;;15.37;;
70459;SDS011;57920;54.796;9.430;2022-10-17T11:46:17;32.10;;;13.17;;
70459;SDS011;57920;54.796;9.430;2022-10-17T11:51:45;28.13;;;13.70;;
70459;SDS011;57920;54.796;9.430;2022-10-17T11:54:27;26.33;;;11.83;;
70459;SDS011;57920;54.796;9.430;2022-10-17T12:08:56;24.77;;;8.83;;
70459;SDS011;57920;54.796;9.430;2022-10-17T12:16:57;163.83;;;28.13;;
70459;SDS011;57920;54.796;9.430;2022-10-17T12:19:29;101.77;;;21.67;;
70459;SDS011;57920;54.796;9.430;2022-10-17T12:22:20;62.97;;;15.97;;
70459;SDS011;57920;54.796;9.430;2022-10-17T12:24:56;96.40;;;40.87;;
70459;SDS011;57920;54.796;9.430;2022-10-17T12:27:32;67.93;;;16.70;;
70459;SDS011;57920;54.796;9.430;2022-10-17T12:35:24;56.70;;;14.07;;
70459;SDS011;57920;54.796;9.430;2022-10-17T12:43:18;65.97;;;16.67;;
70459;SDS011;57920;54.796;9.430;2022-10-17T12:50:59;133.97;;;26.23;;
70459;SDS011;57920;54.796;9.430;2022-10-17T12:53:28;116.40;;;25.43;;
70459;SDS011;57920;54.796;9.430;2022-10-17T12:56:19;71.30;;;17.80;;
70459;SDS011;57920;54.796;9.430;2022-10-17T12:58:54;118.57;;;24.47;;
70459;SDS011;57920;54.796;9.430;2022-10-17T13:01:25;105.73;;;21.63;;
70459;SDS011;57920;54.796;9.430;2022-10-17T13:03:54;94.73;;;20.77;;
70459;SDS011;57920;54.796;9.430;2022-10-17T13:06:21;70.10;;;16.90;;
70459;SDS011;57920;54.796;9.430;2022-10-17T13:08:58;82.50;;;18.87;;
70459;SDS011;57920;54.796;9.430;2022-10-17T13:11:26;71.17;;;20.03;;
70459;SDS011;57920;54.796;9.430;2022-10-17T13:13:56;62.30;;;16.00;;
70459;SDS011;57920;54.796;9.430;2022-10-17T13:16:27;54.93;;;14.90;;
70459;SDS011;57920;54.796;9.430;2022-10-17T13:19:19;51.93;;;14.03;;
70459;SDS011;57920;54.796;9.430;2022-10-17T13:21:53;40.83;;;14.37;;
70459;SDS011;57920;54.796;9.430;2022-10-17T13:26:48;46.90;;;13.33;;
70459;SDS011;57920;54.796;9.430;2022-10-17T13:29:14;49.20;;;12.97;;
70459;SDS011;57920;54.796;9.430;2022-10-17T13:31:42;30.10;;;10.90;;
70459;SDS011;57920;54.796;9.430;2022-10-17T13:34:18;34.80;;;11.27;;
70459;SDS011;57920;54.796;9.430;2022-10-17T13:36:46;30.97;;;11.43;;
70459;SDS011;57920;54.796;9.430;2022-10-17T13:39:14;40.17;;;11.83;;
70459;SDS011;57920;54.796;9.430;2022-10-17T13:41:42;27.63;;;8.93;;
70459;SDS011;57920;54.796;9.430;2022-10-17T13:44:13;32.03;;;10.10;;
70459;SDS011;57920;54.796;9.430;2022-10-17T13:46:43;52.60;;;14.83;;
70459;SDS011;57920;54.796;9.430;2022-10-17T13:49:20;42.23;;;12.80;;
70459;SDS011;57920;54.796;9.430;2022-10-17T13:52:01;33.07;;;10.03;;
70459;SDS011;57920;54.796;9.430;2022-10-17T13:54:33;40.53;;;12.13;;
70459;SDS011;57920;54.796;9.430;2022-10-17T13:57:01;36.67;;;11.23;;
70459;SDS011;57920;54.796;9.430;2022-10-17T13:59:48;35.23;;;12.03;;
70459;SDS011;57920;54.796;9.430;2022-10-17T14:02:18;38.13;;;11.53;;
70459;SDS011;57920;54.796;9.430;2022-10-17T14:04:46;29.57;;;11.23;;
70459;SDS011;57920;54.796;9.430;2022-10-17T14:08:12;30.67;;;10.53;;
70459;SDS011;57920;54.796;9.430;2022-10-17T14:10:52;29.00;;;10.67;;
70459;SDS011;57920;54.796;9.430;2022-10-17T14:13:01;24.53;;;8.57;;
70459;SDS011;57920;54.796;9.430;2022-10-17T14:15:29;30.93;;;8.77;;
70459;SDS011;57920;54.796;9.430;2022-10-17T14:17:57;27.27;;;10.27;;
70459;SDS011;57920;54.796;9.430;2022-10-17T14:20:25;30.33;;;10.37;;
70459;SDS011;57920;54.796;9.430;2022-10-17T14:22:53;30.80;;;10.43;;
70459;SDS011;57920;54.796;9.430;2022-10-17T14:28:27;17.70;;;7.33;;
70459;SDS011;57920;54.796;9.430;2022-10-17T14:30:53;23.57;;;9.07;;
70459;SDS011;57920;54.796;9.430;2022-10-17T14:33:32;23.30;;;8.87;;
70459;SDS011;57920;54.796;9.430;2022-10-17T14:35:59;21.30;;;8.33;;
70459;SDS011;57920;54.796;9.430;2022-10-17T14:38:27;22.73;;;8.13;;
70459;SDS011;57920;54.796;9.430;2022-10-17T14:43:51;18.20;;;6.57;;
70459;SDS011;57920;54.796;9.430;2022-10-17T14:46:18;17.83;;;8.27;;
70459;SDS011;57920;54.796;9.430;2022-10-17T14:48:43;25.53;;;8.67;;
70459;SDS011;57920;54.796;9.430;2022-10-17T14:51:15;17.27;;;7.43;;
70459;SDS011;57920;54.796;9.430;2022-10-17T14:53:43;18.27;;;7.27;;
70459;SDS011;57920;54.796;9.430;2022-10-17T14:56:24;17.67;;;7.17;;
70459;SDS011;57920;54.796;9.430;2022-10-17T14:58:52;17.27;;;7.50;;
70459;SDS011;57920;54.796;9.430;2022-10-17T15:01:18;15.93;;;5.93;;
70459;SDS011;57920;54.796;9.430;2022-10-17T15:03:43;13.43;;;7.00;;
70459;SDS011;57920;54.796;9.430;2022-10-17T15:06:17;22.23;;;8.17;;
70459;SDS011;57920;54.796;9.430;2022-10-17T15:08:53;12.03;;;6.80;;
70459;SDS011;57920;54.796;9.430;2022-10-17T15:11:19;13.70;;;6.20;;
70459;SDS011;57920;54.796;9.430;2022-10-17T15:13:44;17.33;;;7.60;;
70459;SDS011;57920;54.796;9.430;2022-10-17T15:16:23;13.23;;;7.47;;
70459;SDS011;57920;54.796;9.430;2022-10-17T15:18:50;16.10;;;6.90;;
70459;SDS011;57920;54.796;9.430;2022-10-17T15:21:19;12.27;;;5.87;;
70459;SDS011;57920;54.796;9.430;2022-10-17T15:23:46;16.20;;;7.50;;
70459;SDS011;57920;54.796;9.430;2022-10-17T15:26:13;14.80;;;7.27;;
70459;SDS011;57920;54.796;9.430;2022-10-17T15:28:41;15.87;;;6.67;;
70459;SDS011;57920;54.796;9.430;2022-10-17T15:31:08;12.33;;;5.17;;
70459;SDS011;57920;54.796;9.430;2022-10-17T15:33:36;19.47;;;7.00;;
70459;SDS011;57920;54.796;9.430;2022-10-17T15:36:01;12.80;;;6.00;;
70459;SDS011;57920;54.796;9.430;2022-10-17T15:38:27;16.60;;;7.13;;
70459;SDS011;57920;54.796;9.430;2022-10-17T15:40:52;13.97;;;5.93;;
70459;SDS011;57920;54.796;9.430;2022-10-17T15:43:18;11.37;;;6.30;;
70459;SDS011;57920;54.796;9.430;2022-10-17T15:45:43;13.23;;;6.13;;
70459;SDS011;57920;54.796;9.430;2022-10-17T15:48:13;14.37;;;6.43;;
70459;SDS011;57920;54.796;9.430;2022-10-17T15:50:44;14.97;;;6.33;;
70459;SDS011;57920;54.796;9.430;2022-10-17T15:53:12;14.93;;;5.53;;
70459;SDS011;57920;54.796;9.430;2022-10-17T15:55:38;9.87;;;5.00;;
70459;SDS011;57920;54.796;9.430;2022-10-17T15:58:04;7.93;;;4.83;;
70459;SDS011;57920;54.796;9.430;2022-10-17T16:00:30;15.93;;;5.80;;
70459;SDS011;57920;54.796;9.430;2022-10-17T16:02:55;14.73;;;5.77;;
70459;SDS011;57920;54.796;9.430;2022-10-17T16:05:22;8.23;;;4.63;;
70459;SDS011;57920;54.796;9.430;2022-10-17T16:07:54;10.70;;;5.47;;
70459;SDS011;57920;54.796;9.430;2022-10-17T16:10:20;9.83;;;4.80;;
70459;SDS011;57920;54.796;9.430;2022-10-17T16:12:46;11.63;;;5.17;;
70459;SDS011;57920;54.796;9.430;2022-10-17T16:15:31;14.73;;;5.43;;
70459;SDS011;57920;54.796;9.430;2022-10-17T16:17:57;8.87;;;4.70;;
70459;SDS011;57920;54.796;9.430;2022-10-17T16:20:23;14.10;;;6.03;;
70459;SDS011;57920;54.796;9.430;2022-10-17T16:22:49;10.03;;;4.07;;
70459;SDS011;57920;54.796;9.430;2022-10-17T16:25:23;7.53;;;4.80;;
70459;SDS011;57920;54.796;9.430;2022-10-17T16:27:54;8.93;;;4.57;;
70459;SDS011;57920;54.796;9.430;2022-10-17T16:30:22;15.93;;;4.83;;
70459;SDS011;57920;54.796;9.430;2022-10-17T16:32:49;7.50;;;4.17;;
70459;SDS011;57920;54.796;9.430;2022-10-17T16:35:17;10.20;;;4.80;;
70459;SDS011;57920;54.796;9.430;2022-10-17T16:37:44;7.40;;;4.47;;
70459;SDS011;57920;54.796;9.430;2022-10-17T16:40:10;7.67;;;5.17;;
70459;SDS011;57920;54.796;9.430;2022-10-17T16:42:35;11.70;;;5.17;;
70459;SDS011;57920;54.796;9.430;2022-10-17T16:45:01;8.80;;;4.33;;
70459;SDS011;57920;54.796;9.430;2022-10-17T16:47:27;11.73;;;4.13;;
70459;SDS011;57920;54.796;9.430;2022-10-17T16:49:52;7.83;;;4.87;;
70459;SDS011;57920;54.796;9.430;2022-10-17T16:52:18;7.50;;;4.97;;
70459;SDS011;57920;54.796;9.430;2022-10-17T16:54:44;6.97;;;4.30;;
70459;SDS011;57920;54.796;9.430;2022-10-17T16:57:09;6.20;;;3.70;;
70459;SDS011;57920;54.796;9.430;2022-10-17T16:59:35;7.20;;;4.47;;
70459;SDS011;57920;54.796;9.430;2022-10-17T17:02:00;6.50;;;4.07;;
70459;SDS011;57920;54.796;9.430;2022-10-17T17:04:26;10.60;;;4.67;;
70459;SDS011;57920;54.796;9.430;2022-10-17T17:06:51;6.43;;;4.43;;
70459;SDS011;57920;54.796;9.430;2022-10-17T17:09:17;7.90;;;4.87;;
70459;SDS011;57920;54.796;9.430;2022-10-17T17:11:43;7.20;;;4.47;;
70459;SDS011;57920;54.796;9.430;2022-10-17T17:14:09;11.60;;;4.83;;
70459;SDS011;57920;54.796;9.430;2022-10-17T17:16:35;6.83;;;4.20;;
70459;SDS011;57920;54.796;9.430;2022-10-17T17:19:02;8.30;;;4.27;;
70459;SDS011;57920;54.796;9.430;2022-10-17T17:21:30;9.87;;;4.20;;
70459;SDS011;57920;54.796;9.430;2022-10-17T17:23:57;6.90;;;4.43;;
70459;SDS011;57920;54.796;9.430;2022-10-17T17:26:24;6.93;;;3.90;;
70459;SDS011;57920;54.796;9.430;2022-10-17T17:28:51;6.43;;;4.17;;
70459;SDS011;57920;54.796;9.430;2022-10-17T17:31:22;7.73;;;4.40;;
70459;SDS011;57920;54.796;9.430;2022-10-17T17:33:49;6.83;;;4.50;;
70459;SDS011;57920;54.796;9.430;2022-10-17T17:36:25;9.07;;;4.30;;
70459;SDS011;57920;54.796;9.430;2022-10-17T17:38:53;7.87;;;4.40;;
70459;SDS011;57920;54.796;9.430;2022-10-17T17:41:21;6.50;;;3.70;;
70459;SDS011;57920;54.796;9.430;2022-10-17T17:43:47;7.93;;;4.43;;
70459;SDS011;57920;54.796;9.430;2022-10-17T17:46:14;6.97;;;3.50;;
70459;SDS011;57920;54.796;9.430;2022-10-17T17:48:41;10.90;;;4.60;;
70459;SDS011;57920;54.796;9.430;2022-10-17T17:51:08;5.90;;;3.87;;
70459;SDS011;57920;54.796;9.430;2022-10-17T17:53:36;5.67;;;3.90;;
70459;SDS011;57920;54.796;9.430;2022-10-17T17:56:36;5.77;;;3.60;;
70459;SDS011;57920;54.796;9.430;2022-10-17T17:58:58;7.30;;;3.57;;
70459;SDS011;57920;54.796;9.430;2022-10-17T18:01:26;6.30;;;3.50;;
70459;SDS011;57920;54.796;9.430;2022-10-17T18:03:54;7.33;;;4.00;;
70459;SDS011;57920;54.796;9.430;2022-10-17T18:06:22;8.57;;;4.83;;
70459;SDS011;57920;54.796;9.430;2022-10-17T18:08:49;4.43;;;3.47;;
70459;SDS011;57920;54.796;9.430;2022-10-17T18:11:17;6.60;;;3.67;;
70459;SDS011;57920;54.796;9.430;2022-10-17T18:13:42;6.07;;;4.10;;
70459;SDS011;57920;54.796;9.430;2022-10-17T18:16:08;6.77;;;4.20;;
70459;SDS011;57920;54.796;9.430;2022-10-17T18:18:40;4.27;;;3.33;;
70459;SDS011;57920;54.796;9.430;2022-10-17T18:21:08;4.70;;;3.13;;
70459;SDS011;57920;54.796;9.430;2022-10-17T18:23:36;4.83;;;2.93;;
70459;SDS011;57920;54.796;9.430;2022-10-17T18:26:03;6.07;;;3.77;;
70459;SDS011;57920;54.796;9.430;2022-10-17T18:28:29;4.40;;;3.53;;
70459;SDS011;57920;54.796;9.430;2022-10-17T18:31:02;7.17;;;4.03;;
70459;SDS011;57920;54.796;9.430;2022-10-17T18:33:30;4.97;;;3.20;;
70459;SDS011;57920;54.796;9.430;2022-10-17T18:35:55;8.43;;;3.90;;
70459;SDS011;57920;54.796;9.430;2022-10-17T18:38:21;7.33;;;3.50;;
70459;SDS011;57920;54.796;9.430;2022-10-17T18:40:46;6.37;;;3.93;;
70459;SDS011;57920;54.796;9.430;2022-10-17T18:43:12;4.43;;;3.47;;
70459;SDS011;57920;54.796;9.430;2022-10-17T18:45:37;5.80;;;3.70;;
70459;SDS011;57920;54.796;9.430;2022-10-17T18:48:03;5.00;;;3.33;;
70459;SDS011;57920;54.796;9.430;2022-10-17T18:50:28;4.87;;;3.17;;
70459;SDS011;57920;54.796;9.430;2022-10-17T18:52:54;4.07;;;3.03;;
70459;SDS011;57920;54.796;9.430;2022-10-17T18:55:20;7.80;;;3.67;;
70459;SDS011;57920;54.796;9.430;2022-10-17T18:57:46;7.07;;;3.73;;
70459;SDS011;57920;54.796;9.430;2022-10-17T19:00:13;5.93;;;3.13;;
70459;SDS011;57920;54.796;9.430;2022-10-17T19:02:40;5.17;;;3.30;;
70459;SDS011;57920;54.796;9.430;2022-10-17T19:05:05;5.17;;;3.10;;
70459;SDS011;57920;54.796;9.430;2022-10-17T19:07:31;6.33;;;3.50;;
70459;SDS011;57920;54.796;9.430;2022-10-17T19:09:57;8.03;;;3.43;;
70459;SDS011;57920;54.796;9.430;2022-10-17T19:12:22;4.30;;;3.40;;
70459;SDS011;57920;54.796;9.430;2022-10-17T19:14:48;4.63;;;2.80;;
70459;SDS011;57920;54.796;9.430;2022-10-17T19:17:14;5.57;;;3.10;;
70459;SDS011;57920;54.796;9.430;2022-10-17T19:19:40;4.70;;;3.07;;
70459;SDS011;57920;54.796;9.430;2022-10-17T19:22:06;5.40;;;3.50;;
70459;SDS011;57920;54.796;9.430;2022-10-17T19:24:33;5.13;;;3.30;;
70459;SDS011;57920;54.796;9.430;2022-10-17T19:26:58;5.07;;;3.27;;
70459;SDS011;57920;54.796;9.430;2022-10-17T19:29:28;5.87;;;3.10;;
70459;SDS011;57920;54.796;9.430;2022-10-17T19:31:57;6.07;;;3.60;;
70459;SDS011;57920;54.796;9.430;2022-10-17T19:34:22;5.43;;;3.60;;
70459;SDS011;57920;54.796;9.430;2022-10-17T19:36:48;4.77;;;3.33;;
70459;SDS011;57920;54.796;9.430;2022-10-17T19:39:16;5.97;;;3.30;;
70459;SDS011;57920;54.796;9.430;2022-10-17T19:41:43;5.43;;;3.13;;
70459;SDS011;57920;54.796;9.430;2022-10-17T19:44:11;5.13;;;3.47;;
70459;SDS011;57920;54.796;9.430;2022-10-17T19:46:37;4.23;;;2.80;;
70459;SDS011;57920;54.796;9.430;2022-10-17T19:49:03;4.17;;;2.47;;
70459;SDS011;57920;54.796;9.430;2022-10-17T19:51:30;4.63;;;3.10;;
70459;SDS011;57920;54.796;9.430;2022-10-17T19:53:56;4.23;;;2.87;;
70459;SDS011;57920;54.796;9.430;2022-10-17T19:56:26;5.07;;;2.73;;
70459;SDS011;57920;54.796;9.430;2022-10-17T19:58:54;4.23;;;2.87;;